sensor_id;sensor_type;location;lat;lon;timestamp;pressure;altitude;pressure_sealevel;temperature;humidity
68489;BME280;55481;48.764;8.936;2023-04-28T00:02:25;96820;;;10.1;62.5
68489;BME280;55481;48.764;8.936;2023-04-28T00:07:20;96820;;;10;63
68489;BME280;55481;48.764;8.936;2023-04-28T00:19:54;96810;;;10.2;62.5
68489;BME280;55481;48.764;8.936;2023-04-28T00:22:25;96810;;;10.2;62.5
68489;BME280;55481;48.764;8.936;2023-04-28T00:24:55;96800;;;10.2;62.5
68489;BME280;55481;48.764;8.936;2023-04-28T00:27:26;96800;;;10.2;62.5
68489;BME280;55481;48.764;8.936;2023-04-28T00:29:58;96810;;;10.1;63
68489;BME280;55481;48.764;8.936;2023-04-28T00:32:30;96800;;;10.1;63
68489;BME280;55481;48.764;8.936;2023-04-28T00:34:59;96800;;;10.2;63
68489;BME280;55481;48.764;8.936;2023-04-28T00:42:31;96790;;;10.4;63
68489;BME280;55481;48.764;8.936;2023-04-28T00:47:45;96790;;;10.5;62.5
68489;BME280;55481;48.764;8.936;2023-04-28T00:52:38;96790;;;10.6;62.5
68489;BME280;55481;48.764;8.936;2023-04-28T00:55:09;96780;;;10.6;62.5
68489;BME280;55481;48.764;8.936;2023-04-28T01:07:37;96790;;;10.6;62.5
68489;BME280;55481;48.764;8.936;2023-04-28T01:10:08;96780;;;10.6;62.5
68489;BME280;55481;48.764;8.936;2023-04-28T01:17:40;96770;;;10.5;63
68489;BME280;55481;48.764;8.936;2023-04-28T01:20:12;96760;;;10.5;63
68489;BME280;55481;48.764;8.936;2023-04-28T01:22:42;96770;;;10.6;63
68489;BME280;55481;48.764;8.936;2023-04-28T01:25:12;96760;;;10.6;63
68489;BME280;55481;48.764;8.936;2023-04-28T01:27:56;96750;;;10.6;63
68489;BME280;55481;48.764;8.936;2023-04-28T01:30:27;96750;;;10.7;63
68489;BME280;55481;48.764;8.936;2023-04-28T01:32:51;96750;;;10.7;62.5
68489;BME280;55481;48.764;8.936;2023-04-28T01:35:21;96750;;;10.7;62.5
68489;BME280;55481;48.764;8.936;2023-04-28T01:37:52;96750;;;10.7;62.5
68489;BME280;55481;48.764;8.936;2023-04-28T01:40:24;96750;;;10.7;62.5
68489;BME280;55481;48.764;8.936;2023-04-28T01:43:01;96740;;;10.7;63
68489;BME280;55481;48.764;8.936;2023-04-28T01:45:32;96740;;;10.6;63
68489;BME280;55481;48.764;8.936;2023-04-28T01:50:28;96740;;;10.6;63
68489;BME280;55481;48.764;8.936;2023-04-28T01:52:59;96740;;;10.6;63
68489;BME280;55481;48.764;8.936;2023-04-28T01:55:30;96740;;;10.6;63
68489;BME280;55481;48.764;8.936;2023-04-28T01:58:01;96740;;;10.7;63
68489;BME280;55481;48.764;8.936;2023-04-28T02:03:02;96730;;;10.7;63
68489;BME280;55481;48.764;8.936;2023-04-28T02:05:32;96720;;;10.7;63
68489;BME280;55481;48.764;8.936;2023-04-28T02:08:03;96710;;;10.7;63
68489;BME280;55481;48.764;8.936;2023-04-28T02:10:41;96710;;;10.7;63
68489;BME280;55481;48.764;8.936;2023-04-28T02:13:12;96710;;;10.7;63
68489;BME280;55481;48.764;8.936;2023-04-28T02:15:40;96710;;;10.7;63
68489;BME280;55481;48.764;8.936;2023-04-28T02:18:09;96720;;;10.8;63
68489;BME280;55481;48.764;8.936;2023-04-28T02:20:39;96730;;;10.8;63
68489;BME280;55481;48.764;8.936;2023-04-28T02:23:09;96720;;;10.8;63
68489;BME280;55481;48.764;8.936;2023-04-28T02:30:50;96710;;;10.8;63
68489;BME280;55481;48.764;8.936;2023-04-28T02:33:21;96710;;;10.8;63
68489;BME280;55481;48.764;8.936;2023-04-28T02:36:01;96710;;;10.9;63
68489;BME280;55481;48.764;8.936;2023-04-28T02:46:03;96720;;;10.9;63
68489;BME280;55481;48.764;8.936;2023-04-28T02:48:42;96730;;;10.9;63
68489;BME280;55481;48.764;8.936;2023-04-28T02:51:13;96730;;;10.9;63
68489;BME280;55481;48.764;8.936;2023-04-28T02:55:54;96730;;;10.8;63
68489;BME280;55481;48.764;8.936;2023-04-28T02:58:24;96730;;;10.7;63.5
68489;BME280;55481;48.764;8.936;2023-04-28T03:00:54;96730;;;10.7;63.5
68489;BME280;55481;48.764;8.936;2023-04-28T03:03:24;96730;;;10.6;63.5
68489;BME280;55481;48.764;8.936;2023-04-28T03:06:06;96720;;;10.6;64
68489;BME280;55481;48.764;8.936;2023-04-28T03:08:37;96720;;;10.7;63.5
68489;BME280;55481;48.764;8.936;2023-04-28T03:11:07;96720;;;10.7;63.5
68489;BME280;55481;48.764;8.936;2023-04-28T03:15:57;96710;;;10.8;63.5
68489;BME280;55481;48.764;8.936;2023-04-28T03:20:57;96710;;;10.9;63
68489;BME280;55481;48.764;8.936;2023-04-28T03:23:40;96710;;;10.9;63
68489;BME280;55481;48.764;8.936;2023-04-28T03:26:10;96700;;;10.9;63
68489;BME280;55481;48.764;8.936;2023-04-28T03:28:59;96700;;;10.9;63
68489;BME280;55481;48.764;8.936;2023-04-28T03:33:42;96700;;;10.9;63.5
68489;BME280;55481;48.764;8.936;2023-04-28T03:36:15;96700;;;10.8;63.5
68489;BME280;55481;48.764;8.936;2023-04-28T03:38:54;96700;;;10.8;63.5
68489;BME280;55481;48.764;8.936;2023-04-28T03:41:14;96690;;;10.9;63.5
68489;BME280;55481;48.764;8.936;2023-04-28T03:46:05;96680;;;11;63.5
68489;BME280;55481;48.764;8.936;2023-04-28T03:48:35;96670;;;11.1;63
68489;BME280;55481;48.764;8.936;2023-04-28T03:51:06;96670;;;11.2;63
68489;BME280;55481;48.764;8.936;2023-04-28T03:53:34;96670;;;11.5;62.5
68489;BME280;55481;48.764;8.936;2023-04-28T03:56:16;96670;;;11.6;62.5
68489;BME280;55481;48.764;8.936;2023-04-28T03:58:52;96670;;;11.7;62
68489;BME280;55481;48.764;8.936;2023-04-28T04:01:25;96660;;;11.7;62.5
68489;BME280;55481;48.764;8.936;2023-04-28T04:06:06;96660;;;11.8;62.5
68489;BME280;55481;48.764;8.936;2023-04-28T04:08:43;96660;;;11.8;62.5
68489;BME280;55481;48.764;8.936;2023-04-28T04:11:19;96660;;;11.9;62.5
68489;BME280;55481;48.764;8.936;2023-04-28T04:13:36;96660;;;11.9;62.5
68489;BME280;55481;48.764;8.936;2023-04-28T04:18:26;96650;;;11.9;62.5
68489;BME280;55481;48.764;8.936;2023-04-28T04:20:57;96650;;;11.9;62.5
68489;BME280;55481;48.764;8.936;2023-04-28T04:23:29;96650;;;11.9;62.5
68489;BME280;55481;48.764;8.936;2023-04-28T04:25:58;96660;;;11.9;62.5
68489;BME280;55481;48.764;8.936;2023-04-28T04:28:28;96660;;;11.9;62.5
68489;BME280;55481;48.764;8.936;2023-04-28T04:30:59;96650;;;11.9;62.5
68489;BME280;55481;48.764;8.936;2023-04-28T04:36:11;96640;;;11.9;63
68489;BME280;55481;48.764;8.936;2023-04-28T04:38:41;96650;;;11.9;63
68489;BME280;55481;48.764;8.936;2023-04-28T04:41:12;96650;;;11.9;63
68489;BME280;55481;48.764;8.936;2023-04-28T04:46:09;96640;;;11.8;63
68489;BME280;55481;48.764;8.936;2023-04-28T04:48:35;96630;;;11.9;63
68489;BME280;55481;48.764;8.936;2023-04-28T04:51:01;96630;;;11.9;63
68489;BME280;55481;48.764;8.936;2023-04-28T04:53:32;96640;;;11.8;63.5
68489;BME280;55481;48.764;8.936;2023-04-28T04:56:03;96650;;;11.7;63.5
68489;BME280;55481;48.764;8.936;2023-04-28T04:58:33;96650;;;11.6;63.5
68489;BME280;55481;48.764;8.936;2023-04-28T05:01:12;96660;;;11.5;63.5
68489;BME280;55481;48.764;8.936;2023-04-28T05:03:35;96650;;;11.5;64
68489;BME280;55481;48.764;8.936;2023-04-28T05:13:43;96650;;;11.4;64
68489;BME280;55481;48.764;8.936;2023-04-28T05:16:07;96650;;;11.5;63.5
68489;BME280;55481;48.764;8.936;2023-04-28T05:18:48;96650;;;11.5;63.5
68489;BME280;55481;48.764;8.936;2023-04-28T05:21:18;96660;;;11.5;63.5
68489;BME280;55481;48.764;8.936;2023-04-28T05:23:49;96650;;;11.5;64
68489;BME280;55481;48.764;8.936;2023-04-28T05:26:08;96650;;;11.5;64
68489;BME280;55481;48.764;8.936;2023-04-28T05:32:38;96650;;;11.9;64.5
68489;BME280;55481;48.764;8.936;2023-04-28T05:35:00;96660;;;11.8;64.5
68489;BME280;55481;48.764;8.936;2023-04-28T05:37:31;96650;;;11.8;64.5
68489;BME280;55481;48.764;8.936;2023-04-28T05:40:02;96650;;;11.7;64.5
68489;BME280;55481;48.764;8.936;2023-04-28T05:42:34;96640;;;11.7;64.5
68489;BME280;55481;48.764;8.936;2023-04-28T05:47:34;96650;;;11.6;64
68489;BME280;55481;48.764;8.936;2023-04-28T05:55:06;96640;;;11.6;64
68489;BME280;55481;48.764;8.936;2023-04-28T05:57:57;96640;;;11.6;64
68489;BME280;55481;48.764;8.936;2023-04-28T06:02:52;96640;;;11.6;64
68489;BME280;55481;48.764;8.936;2023-04-28T06:05:22;96640;;;11.6;64
68489;BME280;55481;48.764;8.936;2023-04-28T06:07:52;96640;;;11.6;64
68489;BME280;55481;48.764;8.936;2023-04-28T06:10:17;96640;;;11.7;63.5
68489;BME280;55481;48.764;8.936;2023-04-28T06:12:53;96640;;;11.7;64
68489;BME280;55481;48.764;8.936;2023-04-28T06:17:50;96630;;;11.8;63.5
68489;BME280;55481;48.764;8.936;2023-04-28T06:22:57;96630;;;11.8;64
68489;BME280;55481;48.764;8.936;2023-04-28T06:25:28;96630;;;11.9;64
68489;BME280;55481;48.764;8.936;2023-04-28T06:27:58;96630;;;11.9;63.5
68489;BME280;55481;48.764;8.936;2023-04-28T06:32:53;96620;;;12;63.5
68489;BME280;55481;48.764;8.936;2023-04-28T06:35:23;96630;;;12.1;63.5
68489;BME280;55481;48.764;8.936;2023-04-28T06:37:54;96630;;;12.1;63.5
68489;BME280;55481;48.764;8.936;2023-04-28T06:40:31;96630;;;12;64
68489;BME280;55481;48.764;8.936;2023-04-28T06:48:16;96620;;;12.1;64
68489;BME280;55481;48.764;8.936;2023-04-28T06:50:35;96620;;;12.1;63.5
68489;BME280;55481;48.764;8.936;2023-04-28T06:53:04;96620;;;12.2;63.5
68489;BME280;55481;48.764;8.936;2023-04-28T06:57:58;96620;;;12.2;63.5
68489;BME280;55481;48.764;8.936;2023-04-28T07:00:28;96620;;;12.2;64
68489;BME280;55481;48.764;8.936;2023-04-28T07:03:00;96610;;;12.2;64
68489;BME280;55481;48.764;8.936;2023-04-28T07:05:37;96610;;;12.2;64
68489;BME280;55481;48.764;8.936;2023-04-28T07:08:08;96610;;;12.2;64
68489;BME280;55481;48.764;8.936;2023-04-28T07:15:40;96610;;;12.2;64
68489;BME280;55481;48.764;8.936;2023-04-28T07:18:10;96610;;;12.3;64
68489;BME280;55481;48.764;8.936;2023-04-28T07:23:04;96610;;;12.3;64.5
68489;BME280;55481;48.764;8.936;2023-04-28T07:25:35;96610;;;12.4;64
68489;BME280;55481;48.764;8.936;2023-04-28T07:28:06;96600;;;12.5;64
68489;BME280;55481;48.764;8.936;2023-04-28T07:38:03;96600;;;12.3;64.5
68489;BME280;55481;48.764;8.936;2023-04-28T07:40:33;96600;;;12.2;65
68489;BME280;55481;48.764;8.936;2023-04-28T07:43:04;96600;;;12.2;65
68489;BME280;55481;48.764;8.936;2023-04-28T07:45:38;96600;;;12.2;65
68489;BME280;55481;48.764;8.936;2023-04-28T07:48:06;96610;;;12.1;65
68489;BME280;55481;48.764;8.936;2023-04-28T07:53:07;96610;;;12.1;65
68489;BME280;55481;48.764;8.936;2023-04-28T07:55:38;96620;;;12;65
68489;BME280;55481;48.764;8.936;2023-04-28T07:58:08;96620;;;11.9;65
68489;BME280;55481;48.764;8.936;2023-04-28T08:08:13;96620;;;12.1;65
68489;BME280;55481;48.764;8.936;2023-04-28T08:10:43;96630;;;12.1;65
68489;BME280;55481;48.764;8.936;2023-04-28T08:15:50;96630;;;12.1;65
68489;BME280;55481;48.764;8.936;2023-04-28T08:18:22;96630;;;12.2;65
68489;BME280;55481;48.764;8.936;2023-04-28T08:20:52;96630;;;12.1;65
68489;BME280;55481;48.764;8.936;2023-04-28T08:28:18;96640;;;12.2;65
68489;BME280;55481;48.764;8.936;2023-04-28T08:30:49;96640;;;12.2;65
68489;BME280;55481;48.764;8.936;2023-04-28T08:33:19;96640;;;12.3;65
68489;BME280;55481;48.764;8.936;2023-04-28T08:35:50;96630;;;12.3;65
68489;BME280;55481;48.764;8.936;2023-04-28T08:38:21;96630;;;12.5;65
68489;BME280;55481;48.764;8.936;2023-04-28T08:40:52;96640;;;12.5;65
68489;BME280;55481;48.764;8.936;2023-04-28T08:43:23;96650;;;12.5;65
68489;BME280;55481;48.764;8.936;2023-04-28T08:45:54;96650;;;12.6;65
68489;BME280;55481;48.764;8.936;2023-04-28T08:48:24;96660;;;12.5;65.5
68489;BME280;55481;48.764;8.936;2023-04-28T08:58:27;96670;;;12.5;66
68489;BME280;55481;48.764;8.936;2023-04-28T09:01:05;96670;;;12.6;66
68489;BME280;55481;48.764;8.936;2023-04-28T09:03:42;96670;;;12.6;66
68489;BME280;55481;48.764;8.936;2023-04-28T09:06:06;96680;;;12.7;66
68489;BME280;55481;48.764;8.936;2023-04-28T09:08:38;96680;;;12.7;66.5
68489;BME280;55481;48.764;8.936;2023-04-28T09:11:09;96680;;;12.6;66.5
68489;BME280;55481;48.764;8.936;2023-04-28T09:13:39;96680;;;12.5;67
68489;BME280;55481;48.764;8.936;2023-04-28T09:16:10;96690;;;12.6;67
68489;BME280;55481;48.764;8.936;2023-04-28T09:18:44;96690;;;12.8;66.5
68489;BME280;55481;48.764;8.936;2023-04-28T09:26:06;96680;;;13.2;66
68489;BME280;55481;48.764;8.936;2023-04-28T09:28:37;96680;;;13.4;65.5
68489;BME280;55481;48.764;8.936;2023-04-28T09:31:24;96680;;;13.6;65.5
68489;BME280;55481;48.764;8.936;2023-04-28T09:33:42;96670;;;13.8;65.5
68489;BME280;55481;48.764;8.936;2023-04-28T09:38:42;96670;;;14.5;64
68489;BME280;55481;48.764;8.936;2023-04-28T09:41:10;96670;;;14.7;64
68489;BME280;55481;48.764;8.936;2023-04-28T09:46:12;96660;;;15.4;63.5
68489;BME280;55481;48.764;8.936;2023-04-28T09:56:15;96650;;;15.5;65
68489;BME280;55481;48.764;8.936;2023-04-28T10:01:22;96650;;;15.5;65.5
68489;BME280;55481;48.764;8.936;2023-04-28T10:03:54;96670;;;15.7;65.5
68489;BME280;55481;48.764;8.936;2023-04-28T10:08:49;96660;;;16.3;64.5
68489;BME280;55481;48.764;8.936;2023-04-28T10:11:19;96660;;;16.2;65
68489;BME280;55481;48.764;8.936;2023-04-28T10:13:51;96660;;;16.2;65.5
68489;BME280;55481;48.764;8.936;2023-04-28T10:16:21;96660;;;16.1;66
68489;BME280;55481;48.764;8.936;2023-04-28T10:23:58;96670;;;15.6;68
68489;BME280;55481;48.764;8.936;2023-04-28T10:28:56;96660;;;15.7;67.5
68489;BME280;55481;48.764;8.936;2023-04-28T10:31:56;96670;;;15.7;67.5
68489;BME280;55481;48.764;8.936;2023-04-28T10:34:24;96670;;;15.7;67.5
68489;BME280;55481;48.764;8.936;2023-04-28T10:36:45;96670;;;15.8;67.5
68489;BME280;55481;48.764;8.936;2023-04-28T10:41:33;96660;;;16.1;67
68489;BME280;55481;48.764;8.936;2023-04-28T10:44:40;96660;;;16.3;66.5
68489;BME280;55481;48.764;8.936;2023-04-28T10:46:58;96660;;;16.5;66.5
68489;BME280;55481;48.764;8.936;2023-04-28T10:49:12;96660;;;16.7;66.5
68489;BME280;55481;48.764;8.936;2023-04-28T10:57:14;96670;;;16.3;68
68489;BME280;55481;48.764;8.936;2023-04-28T10:59:23;96660;;;16.3;68
68489;BME280;55481;48.764;8.936;2023-04-28T11:04:10;96660;;;16.4;68
68489;BME280;55481;48.764;8.936;2023-04-28T11:06:42;96670;;;16.4;68
68489;BME280;55481;48.764;8.936;2023-04-28T11:12:14;96660;;;16.6;68
68489;BME280;55481;48.764;8.936;2023-04-28T11:16:47;96660;;;16.8;67.5
68489;BME280;55481;48.764;8.936;2023-04-28T11:21:55;96660;;;17.1;67
68489;BME280;55481;48.764;8.936;2023-04-28T11:24:24;96660;;;17.2;67.5
68489;BME280;55481;48.764;8.936;2023-04-28T11:26:47;96660;;;17.1;68
68489;BME280;55481;48.764;8.936;2023-04-28T11:29:29;96660;;;17.1;68
68489;BME280;55481;48.764;8.936;2023-04-28T11:31:49;96650;;;17.1;68
68489;BME280;55481;48.764;8.936;2023-04-28T11:34:20;96650;;;17.2;68
68489;BME280;55481;48.764;8.936;2023-04-28T11:36:58;96660;;;16.9;69
68489;BME280;55481;48.764;8.936;2023-04-28T11:44:30;96650;;;17.1;68.5
68489;BME280;55481;48.764;8.936;2023-04-28T11:47:01;96650;;;17.3;68.5
68489;BME280;55481;48.764;8.936;2023-04-28T11:49:31;96650;;;17.1;69
68489;BME280;55481;48.764;8.936;2023-04-28T11:52:03;96650;;;16.8;69.5
68489;BME280;55481;48.764;8.936;2023-04-28T11:56:55;96650;;;16.9;69.5
68489;BME280;55481;48.764;8.936;2023-04-28T11:59:27;96650;;;17.1;69
68489;BME280;55481;48.764;8.936;2023-04-28T12:02:04;96650;;;17.4;68.5
68489;BME280;55481;48.764;8.936;2023-04-28T12:04:35;96640;;;17.7;68
68489;BME280;55481;48.764;8.936;2023-04-28T12:10:08;96640;;;17.8;68
68489;BME280;55481;48.764;8.936;2023-04-28T12:12:12;96630;;;17.7;68.5
68489;BME280;55481;48.764;8.936;2023-04-28T12:15:07;96640;;;18.1;68
68489;BME280;55481;48.764;8.936;2023-04-28T12:19:41;96640;;;18;68.5
68489;BME280;55481;48.764;8.936;2023-04-28T12:22:03;96640;;;17.7;69
68489;BME280;55481;48.764;8.936;2023-04-28T12:24:32;96640;;;17.6;69.5
68489;BME280;55481;48.764;8.936;2023-04-28T12:27:18;96640;;;17.4;70
68489;BME280;55481;48.764;8.936;2023-04-28T12:31:59;96650;;;17.3;70.5
68489;BME280;55481;48.764;8.936;2023-04-28T12:34:28;96640;;;17.4;70
68489;BME280;55481;48.764;8.936;2023-04-28T12:36:59;96640;;;17.6;69.5
68489;BME280;55481;48.764;8.936;2023-04-28T12:39:30;96640;;;17.6;69.5
68489;BME280;55481;48.764;8.936;2023-04-28T12:42:01;96640;;;17.5;70
68489;BME280;55481;48.764;8.936;2023-04-28T12:44:31;96650;;;17.4;70
68489;BME280;55481;48.764;8.936;2023-04-28T12:47:03;96650;;;17.3;70.5
68489;BME280;55481;48.764;8.936;2023-04-28T12:49:33;96650;;;17.3;70.5
68489;BME280;55481;48.764;8.936;2023-04-28T12:57:05;96630;;;17.4;70
68489;BME280;55481;48.764;8.936;2023-04-28T12:59:37;96630;;;17.6;70
68489;BME280;55481;48.764;8.936;2023-04-28T13:04:37;96620;;;18.7;67.5
68489;BME280;55481;48.764;8.936;2023-04-28T13:07:08;96610;;;19;67
68489;BME280;55481;48.764;8.936;2023-04-28T13:09:54;96590;;;19.3;66.5
68489;BME280;55481;48.764;8.936;2023-04-28T13:12:22;96600;;;19.7;66.5
68489;BME280;55481;48.764;8.936;2023-04-28T13:14:52;96610;;;19.5;67
68489;BME280;55481;48.764;8.936;2023-04-28T13:19:46;96610;;;19;69
68489;BME280;55481;48.764;8.936;2023-04-28T13:22:17;96610;;;18.9;69
68489;BME280;55481;48.764;8.936;2023-04-28T13:24:48;96620;;;18.7;69.5
68489;BME280;55481;48.764;8.936;2023-04-28T13:29:43;96620;;;17.9;71.5
68489;BME280;55481;48.764;8.936;2023-04-28T13:32:15;96620;;;17.8;71.5
68489;BME280;55481;48.764;8.936;2023-04-28T13:34:44;96630;;;17.7;71.5
68489;BME280;55481;48.764;8.936;2023-04-28T13:39:47;96620;;;17.5;71.5
68489;BME280;55481;48.764;8.936;2023-04-28T13:42:17;96610;;;17.7;71
68489;BME280;55481;48.764;8.936;2023-04-28T13:44:47;96610;;;17.8;70.5
68489;BME280;55481;48.764;8.936;2023-04-28T13:47:25;96610;;;17.6;71
68489;BME280;55481;48.764;8.936;2023-04-28T13:49:56;96620;;;17.5;71.5
68489;BME280;55481;48.764;8.936;2023-04-28T13:52:26;96610;;;17.4;71.5
68489;BME280;55481;48.764;8.936;2023-04-28T13:54:58;96610;;;17.3;71.5
68489;BME280;55481;48.764;8.936;2023-04-28T13:59:53;96610;;;17.1;72
68489;BME280;55481;48.764;8.936;2023-04-28T14:02:23;96610;;;17.2;71.5
68489;BME280;55481;48.764;8.936;2023-04-28T14:09:56;96620;;;16.5;73
68489;BME280;55481;48.764;8.936;2023-04-28T14:12:27;96620;;;16.3;73
68489;BME280;55481;48.764;8.936;2023-04-28T14:14:57;96620;;;16.1;73
68489;BME280;55481;48.764;8.936;2023-04-28T14:17:28;96610;;;16;73.5
68489;BME280;55481;48.764;8.936;2023-04-28T14:20:08;96620;;;15.8;74
68489;BME280;55481;48.764;8.936;2023-04-28T14:22:37;96610;;;15.4;74.5
68489;BME280;55481;48.764;8.936;2023-04-28T14:27:32;96610;;;15.3;75
68489;BME280;55481;48.764;8.936;2023-04-28T14:37:35;96610;;;15.6;74
68489;BME280;55481;48.764;8.936;2023-04-28T14:40:06;96600;;;15.9;73.5
68489;BME280;55481;48.764;8.936;2023-04-28T14:42:44;96590;;;16;73
68489;BME280;55481;48.764;8.936;2023-04-28T14:45:08;96600;;;16;73
68489;BME280;55481;48.764;8.936;2023-04-28T14:47:51;96600;;;16.1;72.5
68489;BME280;55481;48.764;8.936;2023-04-28T14:50:22;96610;;;16.1;72.5
68489;BME280;55481;48.764;8.936;2023-04-28T14:52:45;96610;;;16.1;72.5
68489;BME280;55481;48.764;8.936;2023-04-28T14:55:17;96610;;;16;73
68489;BME280;55481;48.764;8.936;2023-04-28T14:57:47;96600;;;16;73
68489;BME280;55481;48.764;8.936;2023-04-28T15:00:27;96590;;;16;73
68489;BME280;55481;48.764;8.936;2023-04-28T15:02:56;96590;;;16.1;73
68489;BME280;55481;48.764;8.936;2023-04-28T15:05:33;96590;;;16.2;72.5
68489;BME280;55481;48.764;8.936;2023-04-28T15:08:10;96600;;;16.2;72.5
68489;BME280;55481;48.764;8.936;2023-04-28T15:10:29;96590;;;16;73
68489;BME280;55481;48.764;8.936;2023-04-28T15:12:57;96600;;;15.8;73.5
68489;BME280;55481;48.764;8.936;2023-04-28T15:15:28;96600;;;15.5;74
68489;BME280;55481;48.764;8.936;2023-04-28T15:17:58;96600;;;15.4;74
68489;BME280;55481;48.764;8.936;2023-04-28T15:22:58;96600;;;15.2;74.5
68489;BME280;55481;48.764;8.936;2023-04-28T15:25:23;96600;;;15;75
68489;BME280;55481;48.764;8.936;2023-04-28T15:28:00;96600;;;14.9;75
68489;BME280;55481;48.764;8.936;2023-04-28T15:30:31;96590;;;14.9;75
68489;BME280;55481;48.764;8.936;2023-04-28T15:32:56;96590;;;15.1;74.5
68489;BME280;55481;48.764;8.936;2023-04-28T15:35:33;96590;;;15.2;74
68489;BME280;55481;48.764;8.936;2023-04-28T15:40:28;96580;;;15.7;73
68489;BME280;55481;48.764;8.936;2023-04-28T15:42:59;96570;;;15.7;73
68489;BME280;55481;48.764;8.936;2023-04-28T15:45:31;96580;;;15.6;73
68489;BME280;55481;48.764;8.936;2023-04-28T15:48:03;96570;;;15.6;73.5
68489;BME280;55481;48.764;8.936;2023-04-28T15:50:39;96580;;;15.4;74
68489;BME280;55481;48.764;8.936;2023-04-28T15:53:03;96580;;;15.4;74
68489;BME280;55481;48.764;8.936;2023-04-28T15:55:38;96580;;;15.3;74
68489;BME280;55481;48.764;8.936;2023-04-28T15:58:05;96580;;;15.3;74
68489;BME280;55481;48.764;8.936;2023-04-28T16:08:02;96590;;;14.2;76
68489;BME280;55481;48.764;8.936;2023-04-28T16:10:33;96580;;;14.2;76
68489;BME280;55481;48.764;8.936;2023-04-28T16:13:03;96580;;;14.4;75.5
68489;BME280;55481;48.764;8.936;2023-04-28T16:15:34;96570;;;14.4;75
68489;BME280;55481;48.764;8.936;2023-04-28T16:18:11;96570;;;14.7;74.5
68489;BME280;55481;48.764;8.936;2023-04-28T16:20:42;96570;;;14.9;74
68489;BME280;55481;48.764;8.936;2023-04-28T16:25:38;96580;;;14.9;74
68489;BME280;55481;48.764;8.936;2023-04-28T16:28:08;96580;;;15;74
68489;BME280;55481;48.764;8.936;2023-04-28T16:35:40;96580;;;15.1;73.5
68489;BME280;55481;48.764;8.936;2023-04-28T16:38:12;96580;;;15;74
68489;BME280;55481;48.764;8.936;2023-04-28T16:40:43;96580;;;15;74.5
68489;BME280;55481;48.764;8.936;2023-04-28T16:43:13;96590;;;15;74.5
68489;BME280;55481;48.764;8.936;2023-04-28T16:48:20;96590;;;15;74.5
68489;BME280;55481;48.764;8.936;2023-04-28T16:50:53;96590;;;15;74.5
68489;BME280;55481;48.764;8.936;2023-04-28T16:53:23;96590;;;14.9;74.5
68489;BME280;55481;48.764;8.936;2023-04-28T16:55:52;96590;;;14.9;74.5
68489;BME280;55481;48.764;8.936;2023-04-28T17:05:49;96570;;;14.9;74.5
68489;BME280;55481;48.764;8.936;2023-04-28T17:10:51;96560;;;15;74
68489;BME280;55481;48.764;8.936;2023-04-28T17:13:22;96550;;;15;74
68489;BME280;55481;48.764;8.936;2023-04-28T17:15:54;96540;;;15.2;74
68489;BME280;55481;48.764;8.936;2023-04-28T17:21:07;96550;;;15.5;73.5
68489;BME280;55481;48.764;8.936;2023-04-28T17:23:39;96550;;;15.4;73.5
68489;BME280;55481;48.764;8.936;2023-04-28T17:26:02;96560;;;15.4;73.5
68489;BME280;55481;48.764;8.936;2023-04-28T17:28:33;96560;;;15.4;73.5
68489;BME280;55481;48.764;8.936;2023-04-28T17:36:00;96570;;;15.3;73.5
68489;BME280;55481;48.764;8.936;2023-04-28T17:38:29;96560;;;15.3;74
68489;BME280;55481;48.764;8.936;2023-04-28T17:41:00;96560;;;15.3;74
68489;BME280;55481;48.764;8.936;2023-04-28T17:43:30;96560;;;15.3;74
68489;BME280;55481;48.764;8.936;2023-04-28T17:46:02;96560;;;15.3;74
68489;BME280;55481;48.764;8.936;2023-04-28T17:51:04;96570;;;15.2;74
68489;BME280;55481;48.764;8.936;2023-04-28T17:53:33;96570;;;15.1;74.5
68489;BME280;55481;48.764;8.936;2023-04-28T17:56:04;96570;;;15.1;74.5
68489;BME280;55481;48.764;8.936;2023-04-28T18:03:37;96560;;;14.8;75
68489;BME280;55481;48.764;8.936;2023-04-28T18:06:07;96570;;;14.7;75
68489;BME280;55481;48.764;8.936;2023-04-28T18:11:14;96580;;;14.5;75.5
68489;BME280;55481;48.764;8.936;2023-04-28T18:13:45;96580;;;14.4;75.5
68489;BME280;55481;48.764;8.936;2023-04-28T18:16:16;96590;;;14.3;75.5
68489;BME280;55481;48.764;8.936;2023-04-28T18:21:16;96600;;;14.5;75.5
68489;BME280;55481;48.764;8.936;2023-04-28T18:23:42;96600;;;14.5;75
68489;BME280;55481;48.764;8.936;2023-04-28T18:31:14;96620;;;14.5;75
68489;BME280;55481;48.764;8.936;2023-04-28T18:33:45;96620;;;14.4;75.5
68489;BME280;55481;48.764;8.936;2023-04-28T18:36:15;96620;;;14.3;75.5
68489;BME280;55481;48.764;8.936;2023-04-28T18:38:47;96620;;;14.2;75.5
68489;BME280;55481;48.764;8.936;2023-04-28T18:41:17;96630;;;14.2;75.5
68489;BME280;55481;48.764;8.936;2023-04-28T18:43:48;96620;;;14.2;76
68489;BME280;55481;48.764;8.936;2023-04-28T18:48:55;96630;;;14.2;75.5
68489;BME280;55481;48.764;8.936;2023-04-28T18:51:26;96630;;;14;76
68489;BME280;55481;48.764;8.936;2023-04-28T18:53:57;96630;;;14;76
68489;BME280;55481;48.764;8.936;2023-04-28T18:56:29;96630;;;14;76
68489;BME280;55481;48.764;8.936;2023-04-28T18:58:59;96630;;;14;76
68489;BME280;55481;48.764;8.936;2023-04-28T19:01:30;96630;;;13.9;76
68489;BME280;55481;48.764;8.936;2023-04-28T19:09:15;96650;;;14.1;75.5
68489;BME280;55481;48.764;8.936;2023-04-28T19:11:39;96650;;;14.1;75.5
68489;BME280;55481;48.764;8.936;2023-04-28T19:16:33;96650;;;14.1;75.5
68489;BME280;55481;48.764;8.936;2023-04-28T19:19:10;96650;;;14;76
68489;BME280;55481;48.764;8.936;2023-04-28T19:21:38;96650;;;14;76
68489;BME280;55481;48.764;8.936;2023-04-28T19:23:59;96660;;;13.9;76
68489;BME280;55481;48.764;8.936;2023-04-28T19:26:30;96670;;;13.9;76
68489;BME280;55481;48.764;8.936;2023-04-28T19:34:02;96670;;;13.6;76.5
68489;BME280;55481;48.764;8.936;2023-04-28T19:36:33;96670;;;13.4;77
68489;BME280;55481;48.764;8.936;2023-04-28T19:39:04;96680;;;13.3;77.5
68489;BME280;55481;48.764;8.936;2023-04-28T19:41:35;96680;;;13.2;77.5
68489;BME280;55481;48.764;8.936;2023-04-28T19:44:06;96680;;;13.1;77.5
68489;BME280;55481;48.764;8.936;2023-04-28T19:46:36;96680;;;13;77.5
68489;BME280;55481;48.764;8.936;2023-04-28T19:49:14;96690;;;12.9;78
68489;BME280;55481;48.764;8.936;2023-04-28T19:51:45;96690;;;12.8;78
68489;BME280;55481;48.764;8.936;2023-04-28T19:54:15;96690;;;12.8;78